sensor_id;sensor_type;location;lat;lon;timestamp;P1;durP1;ratioP1;P2;durP2;ratioP2
9322;SDS011;4700;48.822;9.270;2023-04-25T00:00:59;90.23;;;74.27;;
9322;SDS011;4700;48.822;9.270;2023-04-25T00:19:07;80.70;;;68.73;;
9322;SDS011;4700;48.822;9.270;2023-04-25T00:45:06;94.40;;;77.80;;
9322;SDS011;4700;48.822;9.270;2023-04-25T00:47:53;103.43;;;80.83;;
9322;SDS011;4700;48.822;9.270;2023-04-25T01:13:47;92.23;;;72.67;;
9322;SDS011;4700;48.822;9.270;2023-04-25T01:50:15;115.20;;;85.80;;
9322;SDS011;4700;48.822;9.270;2023-04-25T04:51:50;127.30;;;88.47;;
9322;SDS011;4700;48.822;9.270;2023-04-25T04:59:49;136.90;;;95.67;;
9322;SDS011;4700;48.822;9.270;2023-04-25T05:02:25;155.57;;;105.37;;
9322;SDS011;4700;48.822;9.270;2023-04-25T05:05:13;141.00;;;90.13;;
9322;SDS011;4700;48.822;9.270;2023-04-25T05:08:03;145.73;;;92.60;;
9322;SDS011;4700;48.822;9.270;2023-04-25T05:13:47;138.73;;;85.73;;
9322;SDS011;4700;48.822;9.270;2023-04-25T05:16:33;140.87;;;89.90;;
9322;SDS011;4700;48.822;9.270;2023-04-25T05:19:24;148.50;;;92.23;;
9322;SDS011;4700;48.822;9.270;2023-04-25T05:24:46;141.70;;;90.43;;
9322;SDS011;4700;48.822;9.270;2023-04-25T05:27:33;143.93;;;86.80;;
9322;SDS011;4700;48.822;9.270;2023-04-25T05:30:21;148.10;;;90.70;;
9322;SDS011;4700;48.822;9.270;2023-04-25T05:33:12;186.37;;;101.43;;
9322;SDS011;4700;48.822;9.270;2023-04-25T05:35:58;210.93;;;104.70;;
9322;SDS011;4700;48.822;9.270;2023-04-25T05:38:45;220.50;;;104.13;;
9322;SDS011;4700;48.822;9.270;2023-04-25T05:41:37;253.77;;;119.33;;
9322;SDS011;4700;48.822;9.270;2023-04-25T05:47:04;272.10;;;119.97;;
9322;SDS011;4700;48.822;9.270;2023-04-25T05:49:51;240.07;;;107.80;;
9322;SDS011;4700;48.822;9.270;2023-04-25T05:55:14;190.03;;;95.97;;
9322;SDS011;4700;48.822;9.270;2023-04-25T05:58:12;178.73;;;94.43;;
9322;SDS011;4700;48.822;9.270;2023-04-25T06:01:05;193.90;;;120.73;;
9322;SDS011;4700;48.822;9.270;2023-04-25T06:06:43;171.90;;;92.00;;
9322;SDS011;4700;48.822;9.270;2023-04-25T06:17:22;136.57;;;111.63;;
9322;SDS011;4700;48.822;9.270;2023-04-25T06:25:46;161.13;;;91.47;;
9322;SDS011;4700;48.822;9.270;2023-04-25T06:31:12;228.20;;;115.63;;
9322;SDS011;4700;48.822;9.270;2023-04-25T06:34:01;209.30;;;101.40;;
9322;SDS011;4700;48.822;9.270;2023-04-25T06:36:48;233.13;;;110.27;;
9322;SDS011;4700;48.822;9.270;2023-04-25T06:39:37;241.57;;;112.47;;
9322;SDS011;4700;48.822;9.270;2023-04-25T06:42:23;237.63;;;110.23;;
9322;SDS011;4700;48.822;9.270;2023-04-25T06:45:09;239.53;;;114.73;;
9322;SDS011;4700;48.822;9.270;2023-04-25T06:47:56;227.27;;;113.13;;
9322;SDS011;4700;48.822;9.270;2023-04-25T06:50:44;230.83;;;121.33;;
9322;SDS011;4700;48.822;9.270;2023-04-25T06:53:30;220.63;;;116.33;;
9322;SDS011;4700;48.822;9.270;2023-04-25T06:56:17;224.77;;;110.33;;
9322;SDS011;4700;48.822;9.270;2023-04-25T06:59:02;237.43;;;118.40;;
9322;SDS011;4700;48.822;9.270;2023-04-25T07:01:51;239.13;;;116.07;;
9322;SDS011;4700;48.822;9.270;2023-04-25T07:04:38;241.23;;;115.97;;
9322;SDS011;4700;48.822;9.270;2023-04-25T07:07:27;237.13;;;116.17;;
9322;SDS011;4700;48.822;9.270;2023-04-25T07:10:14;227.77;;;113.13;;
9322;SDS011;4700;48.822;9.270;2023-04-25T07:13:00;222.90;;;113.77;;
9322;SDS011;4700;48.822;9.270;2023-04-25T07:15:46;210.33;;;106.93;;
9322;SDS011;4700;48.822;9.270;2023-04-25T07:18:34;224.07;;;113.63;;
9322;SDS011;4700;48.822;9.270;2023-04-25T07:21:21;219.70;;;114.03;;
9322;SDS011;4700;48.822;9.270;2023-04-25T07:24:08;231.67;;;118.20;;
9322;SDS011;4700;48.822;9.270;2023-04-25T07:26:54;240.30;;;118.67;;
9322;SDS011;4700;48.822;9.270;2023-04-25T07:29:40;226.40;;;109.40;;
9322;SDS011;4700;48.822;9.270;2023-04-25T07:32:26;230.43;;;111.93;;
9322;SDS011;4700;48.822;9.270;2023-04-25T07:35:12;239.13;;;114.77;;
9322;SDS011;4700;48.822;9.270;2023-04-25T07:38:01;226.83;;;112.77;;
9322;SDS011;4700;48.822;9.270;2023-04-25T07:40:49;226.80;;;116.57;;
9322;SDS011;4700;48.822;9.270;2023-04-25T07:43:35;219.37;;;118.57;;
9322;SDS011;4700;48.822;9.270;2023-04-25T07:46:23;203.00;;;107.73;;
9322;SDS011;4700;48.822;9.270;2023-04-25T07:49:11;212.30;;;117.27;;
9322;SDS011;4700;48.822;9.270;2023-04-25T07:51:57;196.03;;;109.70;;
9322;SDS011;4700;48.822;9.270;2023-04-25T07:54:43;194.03;;;109.27;;
9322;SDS011;4700;48.822;9.270;2023-04-25T07:57:31;193.70;;;104.53;;
9322;SDS011;4700;48.822;9.270;2023-04-25T08:00:19;195.43;;;107.40;;
9322;SDS011;4700;48.822;9.270;2023-04-25T08:03:06;202.33;;;110.17;;
9322;SDS011;4700;48.822;9.270;2023-04-25T08:05:52;196.67;;;110.70;;
9322;SDS011;4700;48.822;9.270;2023-04-25T08:08:39;192.63;;;106.07;;
9322;SDS011;4700;48.822;9.270;2023-04-25T08:11:25;183.43;;;102.90;;
9322;SDS011;4700;48.822;9.270;2023-04-25T08:14:13;200.53;;;111.83;;
9322;SDS011;4700;48.822;9.270;2023-04-25T08:16:59;192.33;;;108.23;;
9322;SDS011;4700;48.822;9.270;2023-04-25T08:19:46;193.10;;;105.13;;
9322;SDS011;4700;48.822;9.270;2023-04-25T08:22:33;201.77;;;110.43;;
9322;SDS011;4700;48.822;9.270;2023-04-25T08:45:32;227.50;;;117.77;;
9322;SDS011;4700;48.822;9.270;2023-04-25T08:49:18;230.93;;;106.17;;
9322;SDS011;4700;48.822;9.270;2023-04-25T09:23:52;145.97;;;106.23;;
9322;SDS011;4700;48.822;9.270;2023-04-25T09:27:17;147.50;;;104.70;;
9322;SDS011;4700;48.822;9.270;2023-04-25T09:30:29;134.17;;;100.27;;
9322;SDS011;4700;48.822;9.270;2023-04-25T09:33:58;141.30;;;116.80;;
9322;SDS011;4700;48.822;9.270;2023-04-25T09:37:08;134.60;;;118.63;;
9322;SDS011;4700;48.822;9.270;2023-04-25T09:40:20;141.40;;;127.50;;
9322;SDS011;4700;48.822;9.270;2023-04-25T09:43:18;140.23;;;126.23;;
9322;SDS011;4700;48.822;9.270;2023-04-25T09:46:20;143.33;;;130.43;;
9322;SDS011;4700;48.822;9.270;2023-04-25T09:50:26;190.50;;;177.10;;
9322;SDS011;4700;48.822;9.270;2023-04-25T12:58:30;66.37;;;61.23;;
9322;SDS011;4700;48.822;9.270;2023-04-25T13:01:33;64.47;;;60.27;;
9322;SDS011;4700;48.822;9.270;2023-04-25T13:04:31;62.97;;;59.30;;
9322;SDS011;4700;48.822;9.270;2023-04-25T13:07:23;48.00;;;44.73;;
9322;SDS011;4700;48.822;9.270;2023-04-25T13:10:28;45.60;;;42.43;;
9322;SDS011;4700;48.822;9.270;2023-04-25T13:13:22;46.93;;;43.37;;
9322;SDS011;4700;48.822;9.270;2023-04-25T13:16:18;41.83;;;39.07;;
9322;SDS011;4700;48.822;9.270;2023-04-25T13:34:44;45.50;;;40.97;;
9322;SDS011;4700;48.822;9.270;2023-04-25T13:42:41;39.17;;;36.03;;
9322;SDS011;4700;48.822;9.270;2023-04-25T13:45:18;30.30;;;27.97;;
9322;SDS011;4700;48.822;9.270;2023-04-25T13:47:59;55.33;;;38.63;;
9322;SDS011;4700;48.822;9.270;2023-04-25T13:55:50;67.50;;;43.97;;
9322;SDS011;4700;48.822;9.270;2023-04-25T13:58:45;46.73;;;43.17;;
9322;SDS011;4700;48.822;9.270;2023-04-25T14:01:32;49.77;;;46.07;;
9322;SDS011;4700;48.822;9.270;2023-04-25T14:04:19;50.43;;;46.73;;
9322;SDS011;4700;48.822;9.270;2023-04-25T14:07:06;50.10;;;45.90;;
9322;SDS011;4700;48.822;9.270;2023-04-25T14:15:07;32.97;;;30.40;;
9322;SDS011;4700;48.822;9.270;2023-04-25T14:17:53;52.07;;;46.83;;
9322;SDS011;4700;48.822;9.270;2023-04-25T14:20:41;37.77;;;34.93;;
9322;SDS011;4700;48.822;9.270;2023-04-25T14:23:27;38.83;;;35.63;;
9322;SDS011;4700;48.822;9.270;2023-04-25T14:26:13;41.37;;;38.53;;
9322;SDS011;4700;48.822;9.270;2023-04-25T14:28:59;35.80;;;33.07;;
9322;SDS011;4700;48.822;9.270;2023-04-25T14:31:46;36.00;;;33.53;;
9322;SDS011;4700;48.822;9.270;2023-04-25T14:34:33;36.00;;;33.43;;
9322;SDS011;4700;48.822;9.270;2023-04-25T14:37:19;37.37;;;34.53;;
9322;SDS011;4700;48.822;9.270;2023-04-25T14:40:05;30.60;;;28.53;;
9322;SDS011;4700;48.822;9.270;2023-04-25T14:42:54;39.23;;;35.53;;
9322;SDS011;4700;48.822;9.270;2023-04-25T14:45:40;32.40;;;29.33;;
9322;SDS011;4700;48.822;9.270;2023-04-25T14:48:28;33.53;;;30.80;;
9322;SDS011;4700;48.822;9.270;2023-04-25T14:51:14;34.13;;;31.37;;
9322;SDS011;4700;48.822;9.270;2023-04-25T14:54:01;39.87;;;37.27;;
9322;SDS011;4700;48.822;9.270;2023-04-25T14:56:47;31.87;;;29.40;;
9322;SDS011;4700;48.822;9.270;2023-04-25T14:59:33;40.97;;;38.17;;
9322;SDS011;4700;48.822;9.270;2023-04-25T15:02:19;31.97;;;29.80;;
9322;SDS011;4700;48.822;9.270;2023-04-25T15:05:06;36.77;;;33.70;;
9322;SDS011;4700;48.822;9.270;2023-04-25T15:07:53;34.67;;;31.83;;
9322;SDS011;4700;48.822;9.270;2023-04-25T15:10:39;40.93;;;37.87;;
9322;SDS011;4700;48.822;9.270;2023-04-25T15:13:25;27.27;;;25.20;;
9322;SDS011;4700;48.822;9.270;2023-04-25T15:16:11;49.33;;;45.20;;
9322;SDS011;4700;48.822;9.270;2023-04-25T15:18:57;29.40;;;26.57;;
9322;SDS011;4700;48.822;9.270;2023-04-25T15:21:49;40.80;;;38.07;;
9322;SDS011;4700;48.822;9.270;2023-04-25T15:24:35;29.97;;;27.43;;
9322;SDS011;4700;48.822;9.270;2023-04-25T15:27:21;34.47;;;31.27;;
9322;SDS011;4700;48.822;9.270;2023-04-25T15:30:08;46.03;;;41.20;;
9322;SDS011;4700;48.822;9.270;2023-04-25T15:32:56;36.93;;;33.40;;
9322;SDS011;4700;48.822;9.270;2023-04-25T15:35:42;39.23;;;36.33;;
9322;SDS011;4700;48.822;9.270;2023-04-25T15:38:31;49.27;;;45.43;;
9322;SDS011;4700;48.822;9.270;2023-04-25T15:41:18;48.07;;;44.83;;
9322;SDS011;4700;48.822;9.270;2023-04-25T15:44:05;56.80;;;53.40;;
9322;SDS011;4700;48.822;9.270;2023-04-25T15:46:53;70.73;;;65.47;;
9322;SDS011;4700;48.822;9.270;2023-04-25T15:49:39;57.33;;;53.63;;
9322;SDS011;4700;48.822;9.270;2023-04-25T15:52:25;73.93;;;69.57;;
9322;SDS011;4700;48.822;9.270;2023-04-25T15:55:13;95.07;;;89.67;;
9322;SDS011;4700;48.822;9.270;2023-04-25T15:57:59;125.47;;;117.07;;
9322;SDS011;4700;48.822;9.270;2023-04-25T16:00:45;126.20;;;118.00;;
9322;SDS011;4700;48.822;9.270;2023-04-25T16:03:36;116.43;;;108.00;;
9322;SDS011;4700;48.822;9.270;2023-04-25T16:06:23;119.17;;;109.07;;
9322;SDS011;4700;48.822;9.270;2023-04-25T16:09:11;129.63;;;117.40;;
9322;SDS011;4700;48.822;9.270;2023-04-25T16:11:59;139.27;;;125.97;;
9322;SDS011;4700;48.822;9.270;2023-04-25T16:14:45;124.10;;;112.00;;
9322;SDS011;4700;48.822;9.270;2023-04-25T16:17:31;119.03;;;105.47;;
9322;SDS011;4700;48.822;9.270;2023-04-25T16:20:18;122.27;;;105.73;;
9322;SDS011;4700;48.822;9.270;2023-04-25T16:23:03;128.27;;;106.40;;
9322;SDS011;4700;48.822;9.270;2023-04-25T16:25:49;113.07;;;98.30;;
9322;SDS011;4700;48.822;9.270;2023-04-25T16:28:36;112.83;;;96.37;;
9322;SDS011;4700;48.822;9.270;2023-04-25T16:31:23;137.93;;;115.63;;
9322;SDS011;4700;48.822;9.270;2023-04-25T16:34:09;129.10;;;102.37;;
9322;SDS011;4700;48.822;9.270;2023-04-25T16:36:54;129.27;;;96.80;;
9322;SDS011;4700;48.822;9.270;2023-04-25T16:39:41;131.67;;;93.37;;
9322;SDS011;4700;48.822;9.270;2023-04-25T16:42:27;138.30;;;97.27;;
9322;SDS011;4700;48.822;9.270;2023-04-25T16:45:15;139.67;;;99.40;;
9322;SDS011;4700;48.822;9.270;2023-04-25T16:48:02;142.67;;;95.13;;
9322;SDS011;4700;48.822;9.270;2023-04-25T16:50:48;159.17;;;105.47;;
9322;SDS011;4700;48.822;9.270;2023-04-25T16:53:35;144.80;;;95.00;;
9322;SDS011;4700;48.822;9.270;2023-04-25T16:56:21;147.03;;;96.57;;
9322;SDS011;4700;48.822;9.270;2023-04-25T16:59:07;141.37;;;92.47;;
9322;SDS011;4700;48.822;9.270;2023-04-25T17:01:55;135.63;;;91.80;;
9322;SDS011;4700;48.822;9.270;2023-04-25T17:04:40;133.83;;;87.60;;
9322;SDS011;4700;48.822;9.270;2023-04-25T17:07:27;136.00;;;89.90;;
9322;SDS011;4700;48.822;9.270;2023-04-25T17:10:12;141.40;;;94.50;;
9322;SDS011;4700;48.822;9.270;2023-04-25T17:12:58;137.80;;;90.97;;
9322;SDS011;4700;48.822;9.270;2023-04-25T17:15:26;129.60;;;92.07;;
9322;SDS011;4700;48.822;9.270;2023-04-25T17:18:14;135.57;;;90.50;;
9322;SDS011;4700;48.822;9.270;2023-04-25T17:21:00;140.17;;;95.97;;
9322;SDS011;4700;48.822;9.270;2023-04-25T17:23:48;150.63;;;95.00;;
9322;SDS011;4700;48.822;9.270;2023-04-25T17:26:35;147.57;;;92.80;;
9322;SDS011;4700;48.822;9.270;2023-04-25T17:29:21;149.53;;;91.13;;
9322;SDS011;4700;48.822;9.270;2023-04-25T17:32:07;137.33;;;92.20;;
9322;SDS011;4700;48.822;9.270;2023-04-25T17:34:55;109.43;;;80.30;;
9322;SDS011;4700;48.822;9.270;2023-04-25T17:37:42;113.13;;;85.43;;
9322;SDS011;4700;48.822;9.270;2023-04-25T17:40:29;100.23;;;78.23;;
9322;SDS011;4700;48.822;9.270;2023-04-25T17:43:16;103.93;;;81.50;;
9322;SDS011;4700;48.822;9.270;2023-04-25T17:46:03;98.20;;;78.83;;
9322;SDS011;4700;48.822;9.270;2023-04-25T17:48:51;102.17;;;88.20;;
